CPH weather

Copenhagen Kastrup Airport
Copenhagen, Capital Region, Denmark

Public forecast

Using degrees Celsius for public forecast. Weather courtesy of forecast.io.

METAR (pilot weather report)

Retrieved 2017/11/24 13:20 UTC (8 minutes ago):

EKCH 241320Z 22006KT 9999 SCT030 BKN090 07/05 Q1005 TEMPO BKN010

TAF (pilot weather forecast)

Retrieved 2017/11/24 12:00 UTC (1 hour ago):

TAF EKCH 241059Z 2412/2512 21010KT 9999 SCT020 TEMPO 2412/2420 4000 SHRA BKN010 SCT020CB PROB40 2500/2508 2000 MIFG